Naxos, Greece

3:27 PM EET on October 30, 2014 (GMT +0200)
IU039DU03 | Change Station
CLOSE
Current Station
Personal Weather Station
Location: NAXOS-ISLAND_GR SV8FES Radio Amateur, Kyklades
Elevation: 135 ft
Nearby Weather Stations

Elev 135 ft 37.09 °N, 25.40 °E | Updated 1 second ago

Scattered Clouds
Scattered Clouds
65.9 °F
Feels Like 65.9 °F
N
12.6
Wind Variable Wind from West
Gusts 19.8 mph

Today
High -- | Low -- °F
--% Chance of Precip.
Yesterday
High -- | Low -- °F
Precip. -- in
6:40 AM 5:23 PM
Waxing Crescent, 44% visible
Pressure 30.01 in
Visibility 6.2 miles
Clouds Scattered Clouds 2000 ft
Dew Point 56 °F
Humidity 69%
Rainfall 0.00 in
Snow Depth Not available.
UV 2 out of 12
Pollen Not available.
Air Quality Not available.
Flu Activity Not available.
METAR LGNX 301250Z 01012KT 9999 SCT020 19/13 Q1016

More Conditions Fewer Conditions

Pressure 30.01 in
Visibility 6.2 miles
Clouds Scattered Clouds 2000 ft
Dew Point 56 °F
Humidity 69%
Rainfall 0.00 in
Snow Depth Not available.
UV 2 out of 12
Pollen Not available.
Air Quality Not available.
Flu Activity Not available.
METAR LGNX 301250Z 01012KT 9999 SCT020 19/13 Q1016

More Conditions Fewer Conditions

10-Day Weather Forecast

Almanac

Astronomy

Oct. 30, 2014 Rise Set
Actual Time
Civil Twilight
Nautical Twilight
Astronomical Twilight
Moon
Length of Visible Light
Length of Day
Tomorrow will be .
, % of the Moon is Illuminated

Today's Extremes

Country Highs Country Lows

Community

WunderPhotos

Upload Photos

1,766,358 photos uploaded!

WunderBlogs® & News

Nearby

Air Quality

  Air Quality AQ Index Pollutant
Not available.

Snow Depth

Station Depth Elevation

Earthquake Activity

City Distance Mag. Time & Date
Minimum magnitude displayed is 2.5.

Coastal Water Temperatures

Place Temperature

Nearby Weather Stations